sensor_id;sensor_type;location;lat;lon;timestamp;temperature;humidity
4002;DHT22;2015;48.670;9.060;2022-10-22T04:00:52;12.30;99.90
4002;DHT22;2015;48.670;9.060;2022-10-22T04:03:24;12.30;99.90
4002;DHT22;2015;48.670;9.060;2022-10-22T04:06:01;12.30;99.90
4002;DHT22;2015;48.670;9.060;2022-10-22T04:08:33;12.20;99.90
4002;DHT22;2015;48.670;9.060;2022-10-22T04:11:06;12.20;99.90
4002;DHT22;2015;48.670;9.060;2022-10-22T04:13:38;12.20;99.90
4002;DHT22;2015;48.670;9.060;2022-10-22T04:16:15;12.20;99.90
4002;DHT22;2015;48.670;9.060;2022-10-22T04:18:48;12.20;99.90
4002;DHT22;2015;48.670;9.060;2022-10-22T04:21:20;12.20;99.90
4002;DHT22;2015;48.670;9.060;2022-10-22T04:23:52;12.20;99.90
4002;DHT22;2015;48.670;9.060;2022-10-22T04:26:24;12.10;99.90
4002;DHT22;2015;48.670;9.060;2022-10-22T04:28:56;12.10;99.90
4002;DHT22;2015;48.670;9.060;2022-10-22T04:31:28;12.10;99.90
4002;DHT22;2015;48.670;9.060;2022-10-22T04:34:00;12.10;99.90
4002;DHT22;2015;48.670;9.060;2022-10-22T04:36:32;12.10;99.90
4002;DHT22;2015;48.670;9.060;2022-10-22T04:39:05;12.10;99.90
4002;DHT22;2015;48.670;9.060;2022-10-22T04:41:38;12.10;99.90
4002;DHT22;2015;48.670;9.060;2022-10-22T04:44:09;12.00;99.90
4002;DHT22;2015;48.670;9.060;2022-10-22T04:46:48;12.00;99.90
4002;DHT22;2015;48.670;9.060;2022-10-22T04:49:20;12.00;99.90
4002;DHT22;2015;48.670;9.060;2022-10-22T04:51:52;12.00;99.90
4002;DHT22;2015;48.670;9.060;2022-10-22T04:54:24;12.00;99.90
4002;DHT22;2015;48.670;9.060;2022-10-22T04:57:03;12.00;99.90
4002;DHT22;2015;48.670;9.060;2022-10-22T04:59:35;12.00;99.90
4002;DHT22;2015;48.670;9.060;2022-10-22T05:02:06;12.00;99.90
4002;DHT22;2015;48.670;9.060;2022-10-22T05:04:38;12.00;99.90
4002;DHT22;2015;48.670;9.060;2022-10-22T05:07:11;12.00;99.90
4002;DHT22;2015;48.670;9.060;2022-10-22T05:09:43;11.90;99.90
4002;DHT22;2015;48.670;9.060;2022-10-22T05:12:15;11.90;99.90
4002;DHT22;2015;48.670;9.060;2022-10-22T05:14:46;11.90;99.90
4002;DHT22;2015;48.670;9.060;2022-10-22T05:17:18;11.90;99.90
4002;DHT22;2015;48.670;9.060;2022-10-22T05:19:50;11.90;99.90
4002;DHT22;2015;48.670;9.060;2022-10-22T05:22:21;12.00;99.90
4002;DHT22;2015;48.670;9.060;2022-10-22T05:24:53;12.00;99.90
4002;DHT22;2015;48.670;9.060;2022-10-22T05:27:25;12.00;99.90
4002;DHT22;2015;48.670;9.060;2022-10-22T05:29:57;12.00;99.90
4002;DHT22;2015;48.670;9.060;2022-10-22T05:32:30;12.00;99.90
4002;DHT22;2015;48.670;9.060;2022-10-22T05:35:04;12.00;99.90
4002;DHT22;2015;48.670;9.060;2022-10-22T05:37:37;12.00;99.90
4002;DHT22;2015;48.670;9.060;2022-10-22T05:40:09;12.00;99.90
4002;DHT22;2015;48.670;9.060;2022-10-22T05:42:57;12.00;99.90
4002;DHT22;2015;48.670;9.060;2022-10-22T05:45:29;12.00;99.90
4002;DHT22;2015;48.670;9.060;2022-10-22T05:48:02;12.00;99.90
4002;DHT22;2015;48.670;9.060;2022-10-22T05:50:37;11.90;99.90
4002;DHT22;2015;48.670;9.060;2022-10-22T05:53:09;11.90;99.90
4002;DHT22;2015;48.670;9.060;2022-10-22T05:55:42;12.00;99.90
4002;DHT22;2015;48.670;9.060;2022-10-22T05:58:14;12.00;99.90
4002;DHT22;2015;48.670;9.060;2022-10-22T06:00:45;12.00;99.90
4002;DHT22;2015;48.670;9.060;2022-10-22T06:03:17;12.00;99.90
4002;DHT22;2015;48.670;9.060;2022-10-22T06:05:49;12.10;99.90
4002;DHT22;2015;48.670;9.060;2022-10-22T06:08:20;12.10;99.90
4002;DHT22;2015;48.670;9.060;2022-10-22T06:10:53;12.10;99.90
4002;DHT22;2015;48.670;9.060;2022-10-22T06:13:25;12.10;99.90
4002;DHT22;2015;48.670;9.060;2022-10-22T06:15:57;12.10;99.90
4002;DHT22;2015;48.670;9.060;2022-10-22T06:18:29;12.10;99.90
4002;DHT22;2015;48.670;9.060;2022-10-22T06:21:09;12.00;99.90
4002;DHT22;2015;48.670;9.060;2022-10-22T06:23:42;12.00;99.90
4002;DHT22;2015;48.670;9.060;2022-10-22T06:26:14;12.00;99.90
4002;DHT22;2015;48.670;9.060;2022-10-22T06:28:48;12.00;99.90
4002;DHT22;2015;48.670;9.060;2022-10-22T06:31:20;12.00;99.90
4002;DHT22;2015;48.670;9.060;2022-10-22T06:33:52;12.00;99.90
4002;DHT22;2015;48.670;9.060;2022-10-22T06:36:23;12.00;99.90
4002;DHT22;2015;48.670;9.060;2022-10-22T06:38:56;12.00;99.90
4002;DHT22;2015;48.670;9.060;2022-10-22T06:41:28;12.10;99.90
4002;DHT22;2015;48.670;9.060;2022-10-22T06:44:01;12.10;99.90
4002;DHT22;2015;48.670;9.060;2022-10-22T06:46:33;12.20;99.90
4002;DHT22;2015;48.670;9.060;2022-10-22T06:49:05;12.30;99.90
4002;DHT22;2015;48.670;9.060;2022-10-22T06:51:37;12.40;99.90
4002;DHT22;2015;48.670;9.060;2022-10-22T06:54:09;12.40;99.90
4002;DHT22;2015;48.670;9.060;2022-10-22T06:56:41;12.50;99.90
4002;DHT22;2015;48.670;9.060;2022-10-22T06:59:13;12.60;99.90
4002;DHT22;2015;48.670;9.060;2022-10-22T07:01:45;12.60;99.90
4002;DHT22;2015;48.670;9.060;2022-10-22T07:04:18;12.70;99.90
4002;DHT22;2015;48.670;9.060;2022-10-22T07:06:54;12.70;99.90
4002;DHT22;2015;48.670;9.060;2022-10-22T07:09:26;12.70;99.90
4002;DHT22;2015;48.670;9.060;2022-10-22T07:11:58;12.70;99.90
4002;DHT22;2015;48.670;9.060;2022-10-22T07:14:30;12.80;99.90
4002;DHT22;2015;48.670;9.060;2022-10-22T07:17:02;12.80;99.90
4002;DHT22;2015;48.670;9.060;2022-10-22T07:19:34;12.80;99.90
4002;DHT22;2015;48.670;9.060;2022-10-22T07:22:07;12.80;99.90
4002;DHT22;2015;48.670;9.060;2022-10-22T07:24:39;12.90;99.90
4002;DHT22;2015;48.670;9.060;2022-10-22T07:27:11;12.90;99.90
4002;DHT22;2015;48.670;9.060;2022-10-22T07:29:42;12.90;99.90
4002;DHT22;2015;48.670;9.060;2022-10-22T07:32:14;13.00;99.90
4002;DHT22;2015;48.670;9.060;2022-10-22T07:34:46;13.00;99.90
4002;DHT22;2015;48.670;9.060;2022-10-22T07:37:18;13.00;99.90
4002;DHT22;2015;48.670;9.060;2022-10-22T07:39:52;13.10;99.90
4002;DHT22;2015;48.670;9.060;2022-10-22T07:42:24;13.10;99.90
4002;DHT22;2015;48.670;9.060;2022-10-22T07:44:56;13.10;99.90
4002;DHT22;2015;48.670;9.060;2022-10-22T07:47:27;13.10;99.90
4002;DHT22;2015;48.670;9.060;2022-10-22T07:49:59;13.10;99.90
4002;DHT22;2015;48.670;9.060;2022-10-22T07:52:31;13.20;99.90
4002;DHT22;2015;48.670;9.060;2022-10-22T07:55:04;13.20;99.90
4002;DHT22;2015;48.670;9.060;2022-10-22T07:57:36;13.20;99.90
4002;DHT22;2015;48.670;9.060;2022-10-22T08:00:08;13.30;99.90
4002;DHT22;2015;48.670;9.060;2022-10-22T08:02:40;13.30;99.90
4002;DHT22;2015;48.670;9.060;2022-10-22T08:05:12;13.30;99.90
4002;DHT22;2015;48.670;9.060;2022-10-22T08:07:44;13.40;99.90
4002;DHT22;2015;48.670;9.060;2022-10-22T08:10:16;13.40;99.90
4002;DHT22;2015;48.670;9.060;2022-10-22T08:12:48;13.40;99.90
4002;DHT22;2015;48.670;9.060;2022-10-22T08:15:19;13.40;99.90
4002;DHT22;2015;48.670;9.060;2022-10-22T08:17:53;13.40;99.90
4002;DHT22;2015;48.670;9.060;2022-10-22T08:20:25;13.50;99.90
4002;DHT22;2015;48.670;9.060;2022-10-22T08:22:57;13.50;99.90
4002;DHT22;2015;48.670;9.060;2022-10-22T08:25:30;13.60;99.90
4002;DHT22;2015;48.670;9.060;2022-10-22T08:28:02;13.70;99.90
4002;DHT22;2015;48.670;9.060;2022-10-22T08:30:33;13.80;99.90
4002;DHT22;2015;48.670;9.060;2022-10-22T08:33:08;13.80;99.90
4002;DHT22;2015;48.670;9.060;2022-10-22T08:35:40;13.80;99.90
4002;DHT22;2015;48.670;9.060;2022-10-22T08:38:11;13.90;99.90
4002;DHT22;2015;48.670;9.060;2022-10-22T08:40:48;14.00;99.90
4002;DHT22;2015;48.670;9.060;2022-10-22T08:49:32;14.20;99.90
4002;DHT22;2015;48.670;9.060;2022-10-22T08:52:16;14.30;99.90
4002;DHT22;2015;48.670;9.060;2022-10-22T08:54:50;14.30;99.90
4002;DHT22;2015;48.670;9.060;2022-10-22T08:57:45;14.30;99.90
4002;DHT22;2015;48.670;9.060;2022-10-22T09:06:15;14.70;99.90
4002;DHT22;2015;48.670;9.060;2022-10-22T09:08:50;14.70;99.90
4002;DHT22;2015;48.670;9.060;2022-10-22T09:11:37;14.90;99.90
4002;DHT22;2015;48.670;9.060;2022-10-22T09:14:14;15.00;99.90
4002;DHT22;2015;48.670;9.060;2022-10-22T09:23:17;16.00;99.90
4002;DHT22;2015;48.670;9.060;2022-10-22T09:25:44;17.50;99.90
4002;DHT22;2015;48.670;9.060;2022-10-22T09:28:18;19.00;99.90
4002;DHT22;2015;48.670;9.060;2022-10-22T09:30:50;20.00;99.90
4002;DHT22;2015;48.670;9.060;2022-10-22T09:33:27;20.80;99.90
4002;DHT22;2015;48.670;9.060;2022-10-22T09:36:03;21.50;99.90
4002;DHT22;2015;48.670;9.060;2022-10-22T09:38:43;21.80;99.90
4002;DHT22;2015;48.670;9.060;2022-10-22T09:41:16;22.60;99.90
4002;DHT22;2015;48.670;9.060;2022-10-22T09:43:48;22.70;99.90
4002;DHT22;2015;48.670;9.060;2022-10-22T09:46:26;22.70;99.90
4002;DHT22;2015;48.670;9.060;2022-10-22T09:49:05;22.80;99.90
4002;DHT22;2015;48.670;9.060;2022-10-22T09:56:56;23.80;99.90
4002;DHT22;2015;48.670;9.060;2022-10-22T09:59:37;24.20;99.90
4002;DHT22;2015;48.670;9.060;2022-10-22T10:02:22;24.40;99.90
4002;DHT22;2015;48.670;9.060;2022-10-22T10:05:18;25.00;99.90
4002;DHT22;2015;48.670;9.060;2022-10-22T10:07:50;25.50;99.90
4002;DHT22;2015;48.670;9.060;2022-10-22T10:10:36;25.40;99.90
4002;DHT22;2015;48.670;9.060;2022-10-22T10:17:21;26.00;99.90
4002;DHT22;2015;48.670;9.060;2022-10-22T10:23:14;26.10;99.90
4002;DHT22;2015;48.670;9.060;2022-10-22T10:28:48;25.90;99.90
4002;DHT22;2015;48.670;9.060;2022-10-22T10:37:00;26.20;99.90
4002;DHT22;2015;48.670;9.060;2022-10-22T10:45:19;25.60;99.90
4002;DHT22;2015;48.670;9.060;2022-10-22T11:02:33;26.20;99.90
4002;DHT22;2015;48.670;9.060;2022-10-22T11:05:33;27.00;99.90
4002;DHT22;2015;48.670;9.060;2022-10-22T11:08:20;26.50;99.90
4002;DHT22;2015;48.670;9.060;2022-10-22T11:11:06;25.80;99.90
4002;DHT22;2015;48.670;9.060;2022-10-22T11:25:15;21.40;99.90
4002;DHT22;2015;48.670;9.060;2022-10-22T11:28:04;20.80;99.90
4002;DHT22;2015;48.670;9.060;2022-10-22T11:30:45;20.40;99.90
4002;DHT22;2015;48.670;9.060;2022-10-22T11:33:22;20.00;99.90
4002;DHT22;2015;48.670;9.060;2022-10-22T11:35:56;19.70;99.90
4002;DHT22;2015;48.670;9.060;2022-10-22T11:38:30;19.60;99.90
4002;DHT22;2015;48.670;9.060;2022-10-22T11:41:14;19.40;99.90
4002;DHT22;2015;48.670;9.060;2022-10-22T11:47:03;19.50;99.90
4002;DHT22;2015;48.670;9.060;2022-10-22T11:49:44;19.50;99.90
4002;DHT22;2015;48.670;9.060;2022-10-22T11:55:01;19.60;99.90
4002;DHT22;2015;48.670;9.060;2022-10-22T11:57:36;19.60;99.90
4002;DHT22;2015;48.670;9.060;2022-10-22T12:16:56;19.60;99.90
4002;DHT22;2015;48.670;9.060;2022-10-22T12:24:55;19.80;99.90
4002;DHT22;2015;48.670;9.060;2022-10-22T12:27:37;19.90;99.90
4002;DHT22;2015;48.670;9.060;2022-10-22T12:32:58;20.00;99.90
4002;DHT22;2015;48.670;9.060;2022-10-22T12:35:41;20.10;99.90
4002;DHT22;2015;48.670;9.060;2022-10-22T12:38:18;20.30;99.90
4002;DHT22;2015;48.670;9.060;2022-10-22T12:40:53;20.20;99.90
4002;DHT22;2015;48.670;9.060;2022-10-22T12:43:29;20.00;99.90
4002;DHT22;2015;48.670;9.060;2022-10-22T12:46:01;19.90;99.90
4002;DHT22;2015;48.670;9.060;2022-10-22T12:48:37;19.80;99.90
4002;DHT22;2015;48.670;9.060;2022-10-22T12:51:18;19.60;99.90
4002;DHT22;2015;48.670;9.060;2022-10-22T12:53:56;19.60;99.90
4002;DHT22;2015;48.670;9.060;2022-10-22T12:56:31;19.40;99.90
4002;DHT22;2015;48.670;9.060;2022-10-22T12:59:24;19.40;99.90
4002;DHT22;2015;48.670;9.060;2022-10-22T13:01:56;19.50;99.90
4002;DHT22;2015;48.670;9.060;2022-10-22T13:04:36;19.50;99.90
4002;DHT22;2015;48.670;9.060;2022-10-22T13:09:56;19.40;99.90
4002;DHT22;2015;48.670;9.060;2022-10-22T13:12:35;19.40;99.90
4002;DHT22;2015;48.670;9.060;2022-10-22T13:18:17;19.30;99.90
4002;DHT22;2015;48.670;9.060;2022-10-22T13:21:00;19.20;99.90
4002;DHT22;2015;48.670;9.060;2022-10-22T13:23:33;19.10;99.90
4002;DHT22;2015;48.670;9.060;2022-10-22T13:26:13;19.10;99.90
4002;DHT22;2015;48.670;9.060;2022-10-22T13:28:53;18.90;99.90
4002;DHT22;2015;48.670;9.060;2022-10-22T13:31:32;18.90;99.90
4002;DHT22;2015;48.670;9.060;2022-10-22T13:34:05;18.90;99.90
4002;DHT22;2015;48.670;9.060;2022-10-22T13:36:44;18.80;99.90
4002;DHT22;2015;48.670;9.060;2022-10-22T13:39:22;18.80;99.90
4002;DHT22;2015;48.670;9.060;2022-10-22T13:41:54;18.70;99.90
4002;DHT22;2015;48.670;9.060;2022-10-22T13:44:26;18.80;99.90
4002;DHT22;2015;48.670;9.060;2022-10-22T13:46:57;18.80;99.90
4002;DHT22;2015;48.670;9.060;2022-10-22T13:49:29;18.70;99.90
4002;DHT22;2015;48.670;9.060;2022-10-22T13:52:01;18.60;99.90
4002;DHT22;2015;48.670;9.060;2022-10-22T13:54:34;18.60;99.90
4002;DHT22;2015;48.670;9.060;2022-10-22T13:57:08;18.50;99.90
4002;DHT22;2015;48.670;9.060;2022-10-22T13:59:41;18.30;99.90
4002;DHT22;2015;48.670;9.060;2022-10-22T14:02:13;18.30;99.90
4002;DHT22;2015;48.670;9.060;2022-10-22T14:04:46;18.30;99.90
4002;DHT22;2015;48.670;9.060;2022-10-22T14:07:18;18.40;99.90
4002;DHT22;2015;48.670;9.060;2022-10-22T14:09:50;18.40;99.90
4002;DHT22;2015;48.670;9.060;2022-10-22T14:12:22;18.30;99.90
4002;DHT22;2015;48.670;9.060;2022-10-22T14:14:53;18.20;99.90
4002;DHT22;2015;48.670;9.060;2022-10-22T14:17:26;18.20;99.90
4002;DHT22;2015;48.670;9.060;2022-10-22T14:19:58;18.30;99.90
4002;DHT22;2015;48.670;9.060;2022-10-22T14:22:30;18.20;99.90
4002;DHT22;2015;48.670;9.060;2022-10-22T14:25:02;18.10;99.90
4002;DHT22;2015;48.670;9.060;2022-10-22T14:27:34;18.10;99.90
4002;DHT22;2015;48.670;9.060;2022-10-22T14:30:06;18.00;99.90
4002;DHT22;2015;48.670;9.060;2022-10-22T14:32:38;18.10;99.90
4002;DHT22;2015;48.670;9.060;2022-10-22T14:35:12;18.20;99.90
4002;DHT22;2015;48.670;9.060;2022-10-22T14:37:44;18.10;99.90
4002;DHT22;2015;48.670;9.060;2022-10-22T14:40:18;18.00;99.90
4002;DHT22;2015;48.670;9.060;2022-10-22T14:42:50;17.90;99.90
4002;DHT22;2015;48.670;9.060;2022-10-22T14:45:24;17.70;99.90
4002;DHT22;2015;48.670;9.060;2022-10-22T14:47:56;17.60;99.90
4002;DHT22;2015;48.670;9.060;2022-10-22T14:50:28;17.40;99.90
4002;DHT22;2015;48.670;9.060;2022-10-22T14:53:00;17.50;99.90
4002;DHT22;2015;48.670;9.060;2022-10-22T14:55:32;17.50;99.90
4002;DHT22;2015;48.670;9.060;2022-10-22T14:58:04;17.40;99.90
4002;DHT22;2015;48.670;9.060;2022-10-22T15:00:35;17.20;99.90
4002;DHT22;2015;48.670;9.060;2022-10-22T15:03:08;17.00;99.90
4002;DHT22;2015;48.670;9.060;2022-10-22T15:05:41;16.80;99.90
4002;DHT22;2015;48.670;9.060;2022-10-22T15:08:15;16.60;99.90
4002;DHT22;2015;48.670;9.060;2022-10-22T15:10:57;16.40;99.90
4002;DHT22;2015;48.670;9.060;2022-10-22T15:13:30;16.30;99.90
4002;DHT22;2015;48.670;9.060;2022-10-22T15:16:07;16.20;99.90
4002;DHT22;2015;48.670;9.060;2022-10-22T15:18:39;16.10;99.90
4002;DHT22;2015;48.670;9.060;2022-10-22T15:21:19;16.00;99.90
4002;DHT22;2015;48.670;9.060;2022-10-22T15:23:51;15.90;99.90
4002;DHT22;2015;48.670;9.060;2022-10-22T15:26:23;15.80;99.90
4002;DHT22;2015;48.670;9.060;2022-10-22T15:28:54;15.60;99.90
4002;DHT22;2015;48.670;9.060;2022-10-22T15:31:52;15.50;99.90
4002;DHT22;2015;48.670;9.060;2022-10-22T15:34:30;15.40;99.90
4002;DHT22;2015;48.670;9.060;2022-10-22T15:37:04;15.30;99.90
4002;DHT22;2015;48.670;9.060;2022-10-22T15:39:40;15.30;99.90
4002;DHT22;2015;48.670;9.060;2022-10-22T15:42:12;15.20;99.90
4002;DHT22;2015;48.670;9.060;2022-10-22T15:44:45;15.10;99.90
4002;DHT22;2015;48.670;9.060;2022-10-22T15:47:16;15.00;99.90
4002;DHT22;2015;48.670;9.060;2022-10-22T15:49:48;14.90;99.90
4002;DHT22;2015;48.670;9.060;2022-10-22T15:52:20;14.90;99.90
4002;DHT22;2015;48.670;9.060;2022-10-22T15:54:52;14.80;99.90
4002;DHT22;2015;48.670;9.060;2022-10-22T15:57:24;14.80;99.90
4002;DHT22;2015;48.670;9.060;2022-10-22T15:59:57;14.70;99.90
4002;DHT22;2015;48.670;9.060;2022-10-22T16:02:28;14.60;99.90
4002;DHT22;2015;48.670;9.060;2022-10-22T16:05:00;14.60;99.90
4002;DHT22;2015;48.670;9.060;2022-10-22T16:07:36;14.50;99.90
4002;DHT22;2015;48.670;9.060;2022-10-22T16:10:09;14.50;99.90
4002;DHT22;2015;48.670;9.060;2022-10-22T16:12:44;14.40;99.90
4002;DHT22;2015;48.670;9.060;2022-10-22T16:15:16;14.30;99.90
4002;DHT22;2015;48.670;9.060;2022-10-22T16:17:48;14.30;99.90
4002;DHT22;2015;48.670;9.060;2022-10-22T16:20:21;14.20;99.90
4002;DHT22;2015;48.670;9.060;2022-10-22T16:22:53;14.10;99.90
4002;DHT22;2015;48.670;9.060;2022-10-22T16:25:27;14.10;99.90
4002;DHT22;2015;48.670;9.060;2022-10-22T16:27:59;14.00;99.90
4002;DHT22;2015;48.670;9.060;2022-10-22T16:30:35;13.90;99.90
4002;DHT22;2015;48.670;9.060;2022-10-22T16:33:08;13.90;99.90
4002;DHT22;2015;48.670;9.060;2022-10-22T16:35:41;13.80;99.90
4002;DHT22;2015;48.670;9.060;2022-10-22T16:38:13;13.80;99.90
4002;DHT22;2015;48.670;9.060;2022-10-22T16:40:44;13.80;99.90
4002;DHT22;2015;48.670;9.060;2022-10-22T16:43:16;13.70;99.90
4002;DHT22;2015;48.670;9.060;2022-10-22T16:45:49;13.70;99.90
4002;DHT22;2015;48.670;9.060;2022-10-22T16:48:20;13.60;99.90
4002;DHT22;2015;48.670;9.060;2022-10-22T16:50:52;13.60;99.90
4002;DHT22;2015;48.670;9.060;2022-10-22T16:53:24;13.50;99.90
4002;DHT22;2015;48.670;9.060;2022-10-22T16:55:56;13.50;99.90
4002;DHT22;2015;48.670;9.060;2022-10-22T16:58:27;13.40;99.90
4002;DHT22;2015;48.670;9.060;2022-10-22T17:00:59;13.40;99.90
4002;DHT22;2015;48.670;9.060;2022-10-22T17:03:35;13.30;99.90
4002;DHT22;2015;48.670;9.060;2022-10-22T17:06:07;13.30;99.90
4002;DHT22;2015;48.670;9.060;2022-10-22T17:08:40;13.30;99.90
4002;DHT22;2015;48.670;9.060;2022-10-22T17:11:14;13.20;99.90
4002;DHT22;2015;48.670;9.060;2022-10-22T17:13:51;13.20;99.90
4002;DHT22;2015;48.670;9.060;2022-10-22T17:16:23;13.10;99.90
4002;DHT22;2015;48.670;9.060;2022-10-22T17:18:56;13.10;99.90
4002;DHT22;2015;48.670;9.060;2022-10-22T17:21:28;13.10;99.90
4002;DHT22;2015;48.670;9.060;2022-10-22T17:24:00;13.00;99.90
4002;DHT22;2015;48.670;9.060;2022-10-22T17:26:32;13.00;99.90
4002;DHT22;2015;48.670;9.060;2022-10-22T17:29:05;13.00;99.90
4002;DHT22;2015;48.670;9.060;2022-10-22T17:31:38;12.90;99.90
4002;DHT22;2015;48.670;9.060;2022-10-22T17:34:15;12.90;99.90
4002;DHT22;2015;48.670;9.060;2022-10-22T17:36:47;12.80;99.90
4002;DHT22;2015;48.670;9.060;2022-10-22T17:39:18;12.80;99.90
4002;DHT22;2015;48.670;9.060;2022-10-22T17:41:50;12.80;99.90
4002;DHT22;2015;48.670;9.060;2022-10-22T17:44:22;12.70;99.90
4002;DHT22;2015;48.670;9.060;2022-10-22T17:46:54;12.70;99.90
4002;DHT22;2015;48.670;9.060;2022-10-22T17:49:26;12.70;99.90
4002;DHT22;2015;48.670;9.060;2022-10-22T17:51:58;12.60;99.90
4002;DHT22;2015;48.670;9.060;2022-10-22T17:54:32;12.60;99.90
4002;DHT22;2015;48.670;9.060;2022-10-22T17:57:04;12.60;99.90
4002;DHT22;2015;48.670;9.060;2022-10-22T17:59:36;12.60;99.90
4002;DHT22;2015;48.670;9.060;2022-10-22T18:02:15;12.60;99.90
4002;DHT22;2015;48.670;9.060;2022-10-22T18:04:50;12.50;99.90
4002;DHT22;2015;48.670;9.060;2022-10-22T18:07:22;12.50;99.90
4002;DHT22;2015;48.670;9.060;2022-10-22T18:09:54;12.50;99.90
4002;DHT22;2015;48.670;9.060;2022-10-22T18:12:26;12.50;99.90
4002;DHT22;2015;48.670;9.060;2022-10-22T18:14:58;12.40;99.90
4002;DHT22;2015;48.670;9.060;2022-10-22T18:17:29;12.40;99.90
4002;DHT22;2015;48.670;9.060;2022-10-22T18:20:05;12.40;99.90
4002;DHT22;2015;48.670;9.060;2022-10-22T18:22:37;12.40;99.90
4002;DHT22;2015;48.670;9.060;2022-10-22T18:25:11;12.30;99.90
4002;DHT22;2015;48.670;9.060;2022-10-22T18:27:43;12.30;99.90
4002;DHT22;2015;48.670;9.060;2022-10-22T18:30:17;12.30;99.90
4002;DHT22;2015;48.670;9.060;2022-10-22T18:32:49;12.30;99.90
4002;DHT22;2015;48.670;9.060;2022-10-22T18:35:22;12.20;99.90
4002;DHT22;2015;48.670;9.060;2022-10-22T18:37:53;12.20;99.90
4002;DHT22;2015;48.670;9.060;2022-10-22T18:40:25;12.20;99.90
4002;DHT22;2015;48.670;9.060;2022-10-22T18:42:57;12.10;99.90
4002;DHT22;2015;48.670;9.060;2022-10-22T18:45:29;12.10;99.90
4002;DHT22;2015;48.670;9.060;2022-10-22T18:48:01;12.10;99.90
4002;DHT22;2015;48.670;9.060;2022-10-22T18:50:33;12.10;99.90
4002;DHT22;2015;48.670;9.060;2022-10-22T18:53:05;12.00;99.90
4002;DHT22;2015;48.670;9.060;2022-10-22T18:55:38;12.10;99.90
4002;DHT22;2015;48.670;9.060;2022-10-22T18:58:10;12.00;99.90
4002;DHT22;2015;48.670;9.060;2022-10-22T19:00:42;12.10;99.90
4002;DHT22;2015;48.670;9.060;2022-10-22T19:03:13;12.00;99.90
4002;DHT22;2015;48.670;9.060;2022-10-22T19:05:50;12.00;99.90
4002;DHT22;2015;48.670;9.060;2022-10-22T19:08:22;12.00;99.90
4002;DHT22;2015;48.670;9.060;2022-10-22T19:10:54;12.00;99.90
4002;DHT22;2015;48.670;9.060;2022-10-22T19:13:26;12.00;99.90
4002;DHT22;2015;48.670;9.060;2022-10-22T19:16:03;12.00;99.90
4002;DHT22;2015;48.670;9.060;2022-10-22T19:18:36;12.00;99.90
4002;DHT22;2015;48.670;9.060;2022-10-22T19:21:10;12.00;99.90
4002;DHT22;2015;48.670;9.060;2022-10-22T19:23:42;11.90;99.90
4002;DHT22;2015;48.670;9.060;2022-10-22T19:26:20;11.90;99.90
4002;DHT22;2015;48.670;9.060;2022-10-22T19:28:55;12.00;99.90
4002;DHT22;2015;48.670;9.060;2022-10-22T19:31:28;11.90;99.90
4002;DHT22;2015;48.670;9.060;2022-10-22T19:34:00;11.90;99.90
4002;DHT22;2015;48.670;9.060;2022-10-22T19:36:32;11.90;99.90
4002;DHT22;2015;48.670;9.060;2022-10-22T19:39:05;11.90;99.90
4002;DHT22;2015;48.670;9.060;2022-10-22T19:41:38;11.90;99.90
4002;DHT22;2015;48.670;9.060;2022-10-22T19:44:10;11.90;99.90
4002;DHT22;2015;48.670;9.060;2022-10-22T19:46:42;11.90;99.90
4002;DHT22;2015;48.670;9.060;2022-10-22T19:49:14;11.90;99.90
4002;DHT22;2015;48.670;9.060;2022-10-22T19:51:52;11.90;99.90
4002;DHT22;2015;48.670;9.060;2022-10-22T19:54:24;11.90;99.90
4002;DHT22;2015;48.670;9.060;2022-10-22T19:56:56;11.90;99.90
4002;DHT22;2015;48.670;9.060;2022-10-22T19:59:27;11.90;99.90
4002;DHT22;2015;48.670;9.060;2022-10-22T20:02:02;11.90;99.90
4002;DHT22;2015;48.670;9.060;2022-10-22T20:04:35;11.90;99.90
4002;DHT22;2015;48.670;9.060;2022-10-22T20:07:06;11.90;99.90
4002;DHT22;2015;48.670;9.060;2022-10-22T20:09:38;11.90;99.90
4002;DHT22;2015;48.670;9.060;2022-10-22T20:12:10;11.90;99.90
4002;DHT22;2015;48.670;9.060;2022-10-22T20:14:42;11.90;99.90
4002;DHT22;2015;48.670;9.060;2022-10-22T20:17:14;11.80;99.90
4002;DHT22;2015;48.670;9.060;2022-10-22T20:19:46;11.80;99.90
4002;DHT22;2015;48.670;9.060;2022-10-22T20:22:18;11.80;99.90
4002;DHT22;2015;48.670;9.060;2022-10-22T20:24:49;11.80;99.90
4002;DHT22;2015;48.670;9.060;2022-10-22T20:27:21;11.80;99.90
4002;DHT22;2015;48.670;9.060;2022-10-22T20:29:53;11.80;99.90
4002;DHT22;2015;48.670;9.060;2022-10-22T20:32:25;11.80;99.90
4002;DHT22;2015;48.670;9.060;2022-10-22T20:34:58;11.80;99.90
4002;DHT22;2015;48.670;9.060;2022-10-22T20:37:30;11.80;99.90
4002;DHT22;2015;48.670;9.060;2022-10-22T20:40:01;11.70;99.90
4002;DHT22;2015;48.670;9.060;2022-10-22T20:42:34;11.70;99.90
4002;DHT22;2015;48.670;9.060;2022-10-22T20:45:06;11.70;99.90
4002;DHT22;2015;48.670;9.060;2022-10-22T20:47:38;11.70;99.90
4002;DHT22;2015;48.670;9.060;2022-10-22T20:50:26;11.60;99.90
4002;DHT22;2015;48.670;9.060;2022-10-22T20:53:01;11.60;99.90
4002;DHT22;2015;48.670;9.060;2022-10-22T20:55:33;11.60;99.90
4002;DHT22;2015;48.670;9.060;2022-10-22T20:58:05;11.50;99.90
4002;DHT22;2015;48.670;9.060;2022-10-22T21:00:37;11.50;99.90
4002;DHT22;2015;48.670;9.060;2022-10-22T21:03:10;11.50;99.90
4002;DHT22;2015;48.670;9.060;2022-10-22T21:05:42;11.50;99.90
4002;DHT22;2015;48.670;9.060;2022-10-22T21:08:14;11.50;99.90
4002;DHT22;2015;48.670;9.060;2022-10-22T21:10:49;11.40;99.90
4002;DHT22;2015;48.670;9.060;2022-10-22T21:13:20;11.40;99.90
4002;DHT22;2015;48.670;9.060;2022-10-22T21:15:52;11.40;99.90
4002;DHT22;2015;48.670;9.060;2022-10-22T21:18:24;11.40;99.90
4002;DHT22;2015;48.670;9.060;2022-10-22T21:20:57;11.40;99.90
4002;DHT22;2015;48.670;9.060;2022-10-22T21:23:28;11.40;99.90
4002;DHT22;2015;48.670;9.060;2022-10-22T21:26:00;11.40;99.90
4002;DHT22;2015;48.670;9.060;2022-10-22T21:28:34;11.40;99.90
4002;DHT22;2015;48.670;9.060;2022-10-22T21:31:08;11.40;99.90
4002;DHT22;2015;48.670;9.060;2022-10-22T21:33:40;11.30;99.90
4002;DHT22;2015;48.670;9.060;2022-10-22T21:36:12;11.30;99.90
4002;DHT22;2015;48.670;9.060;2022-10-22T21:38:44;11.30;99.90
4002;DHT22;2015;48.670;9.060;2022-10-22T21:41:17;11.30;99.90
4002;DHT22;2015;48.670;9.060;2022-10-22T21:43:49;11.30;99.90
4002;DHT22;2015;48.670;9.060;2022-10-22T21:46:23;11.30;99.90
4002;DHT22;2015;48.670;9.060;2022-10-22T21:49:00;11.40;99.90
4002;DHT22;2015;48.670;9.060;2022-10-22T21:51:33;11.30;99.90
4002;DHT22;2015;48.670;9.060;2022-10-22T21:54:06;11.30;99.90
4002;DHT22;2015;48.670;9.060;2022-10-22T21:56:38;11.30;99.90
4002;DHT22;2015;48.670;9.060;2022-10-22T21:59:11;11.20;99.90
4002;DHT22;2015;48.670;9.060;2022-10-22T22:01:42;11.20;99.90
4002;DHT22;2015;48.670;9.060;2022-10-22T22:04:14;11.20;99.90
4002;DHT22;2015;48.670;9.060;2022-10-22T22:06:46;11.20;99.90
4002;DHT22;2015;48.670;9.060;2022-10-22T22:09:18;11.20;99.90
4002;DHT22;2015;48.670;9.060;2022-10-22T22:11:50;11.30;99.90
4002;DHT22;2015;48.670;9.060;2022-10-22T22:14:22;11.30;99.90
4002;DHT22;2015;48.670;9.060;2022-10-22T22:16:53;11.30;99.90
4002;DHT22;2015;48.670;9.060;2022-10-22T22:19:25;11.20;99.90
4002;DHT22;2015;48.670;9.060;2022-10-22T22:21:57;11.30;99.90
4002;DHT22;2015;48.670;9.060;2022-10-22T22:24:29;11.30;99.90
4002;DHT22;2015;48.670;9.060;2022-10-22T22:27:00;11.30;99.90
4002;DHT22;2015;48.670;9.060;2022-10-22T22:29:33;11.30;99.90
4002;DHT22;2015;48.670;9.060;2022-10-22T22:32:05;11.30;99.90